createdAt,value
2023-06-04T00:02:01.004Z,102067.97
2023-06-04T00:04:05.649Z,102065.47
2023-06-04T00:06:09.790Z,102063.75
2023-06-04T00:08:13.732Z,102067.34
2023-06-04T00:10:18.563Z,102065.69
2023-06-04T00:12:24.045Z,102069.28
2023-06-04T00:14:28.606Z,102063.19
2023-06-04T00:16:32.139Z,102060.53
2023-06-04T00:18:36.497Z,102062.41
2023-06-04T00:20:40.574Z,102062.47
2023-06-04T00:22:45.016Z,102067.03
2023-06-04T00:24:48.625Z,102065.31
2023-06-04T00:26:52.354Z,102060.16
2023-06-04T00:28:58.516Z,102064.66
2023-06-04T00:31:02.702Z,102056.84
2023-06-04T00:33:08.363Z,102059.50
2023-06-04T00:35:13.342Z,102058.75
2023-06-04T00:37:18.370Z,102065.00
2023-06-04T00:39:22.642Z,102058.88
2023-06-04T00:41:27.876Z,102059.75
2023-06-04T00:43:33.171Z,102052.78
2023-06-04T00:45:38.550Z,102053.72
2023-06-04T00:47:43.095Z,102047.56
2023-06-04T00:49:47.212Z,102049.41
2023-06-04T00:51:51.551Z,102047.63
2023-06-04T00:53:55.795Z,102051.22
2023-06-04T00:55:59.713Z,102050.34
2023-06-04T00:58:05.434Z,102054.91
2023-06-04T01:00:10.129Z,102052.25
2023-06-04T01:02:21.020Z,102047.09
2023-06-04T01:04:32.014Z,102051.69
2023-06-04T01:06:40.257Z,102043.88
2023-06-04T01:08:46.924Z,102044.81
2023-06-04T01:10:54.076Z,102046.59
2023-06-04T01:12:58.538Z,102044.00
2023-06-04T01:15:02.484Z,102038.69
2023-06-04T01:20:06.351Z,102039.00
2023-06-04T01:22:22.202Z,102043.59
2023-06-04T01:24:30.186Z,102047.25
2023-06-04T01:26:34.473Z,102048.25
2023-06-04T01:28:38.941Z,102041.34
2023-06-04T01:30:47.928Z,102043.19
2023-06-04T01:32:52.470Z,102045.06
2023-06-04T01:34:59.811Z,102042.53
2023-06-04T01:37:05.758Z,102042.63
2023-06-04T01:39:11.573Z,102042.63
2023-06-04T01:41:15.465Z,102046.19
2023-06-04T01:43:19.737Z,102036.63
2023-06-04T01:45:24.090Z,102036.63
2023-06-04T01:47:28.467Z,102034.09
2023-06-04T01:49:33.651Z,102032.44
2023-06-04T01:51:38.752Z,102034.31
2023-06-04T01:53:42.655Z,102034.41
2023-06-04T01:55:46.526Z,102034.56
2023-06-04T01:57:51.044Z,102032.75
2023-06-04T01:59:57.026Z,102036.31
2023-06-04T02:02:03.684Z,102038.13
2023-06-04T02:04:07.801Z,102038.22
2023-06-04T02:06:12.587Z,102043.50
2023-06-04T02:08:20.299Z,102037.31
2023-06-04T02:10:25.847Z,102043.56
2023-06-04T02:12:31.031Z,102041.94
2023-06-04T02:14:35.224Z,102037.56
2023-06-04T02:16:40.280Z,102035.91
2023-06-04T02:18:44.104Z,102043.06
2023-06-04T02:20:49.176Z,102032.59
2023-06-04T02:22:54.109Z,102036.19
2023-06-04T02:25:00.458Z,102041.63
2023-06-04T02:27:04.322Z,102043.50
2023-06-04T02:29:08.098Z,102036.47
2023-06-04T02:31:11.385Z,102040.06
2023-06-04T02:33:16.237Z,102034.81
2023-06-04T02:35:22.498Z,102041.06
2023-06-04T02:37:26.381Z,102039.41
2023-06-04T02:39:31.293Z,102038.47
2023-06-04T02:41:36.583Z,102042.06
2023-06-04T02:43:40.743Z,102038.63
2023-06-04T02:45:46.068Z,102030.81
2023-06-04T02:47:51.026Z,102037.06
2023-06-04T02:49:56.204Z,102039.78
2023-06-04T02:52:00.458Z,102041.63
2023-06-04T02:54:04.614Z,102040.69
2023-06-04T02:56:08.858Z,102034.53
2023-06-04T02:58:16.744Z,102042.44
2023-06-04T03:00:21.381Z,102039.84
2023-06-04T03:02:26.252Z,102030.09
2023-06-04T03:04:35.158Z,102030.16
2023-06-04T03:06:40.336Z,102036.41
2023-06-04T03:08:45.547Z,102032.91
2023-06-04T03:10:49.238Z,102037.38
2023-06-04T03:12:53.663Z,102033.00
2023-06-04T03:14:59.058Z,102034.81
2023-06-04T03:17:08.953Z,102027.84
2023-06-04T03:19:13.912Z,102028.75
2023-06-04T03:21:18.361Z,102031.44
2023-06-04T03:23:22.793Z,102025.28
2023-06-04T03:25:26.638Z,102025.28
2023-06-04T03:27:31.781Z,102020.91
2023-06-04T03:29:36.071Z,102011.25
2023-06-04T03:31:43.247Z,102028.00
2023-06-04T03:33:47.094Z,102020.97
2023-06-04T03:35:53.686Z,102020.97
2023-06-04T03:37:58.156Z,102015.75
2023-06-04T03:40:03.635Z,102023.78
2023-06-04T03:42:08.166Z,102021.97
2023-06-04T03:44:11.740Z,102015.81
2023-06-04T03:46:15.066Z,102019.38
2023-06-04T03:48:19.926Z,102021.25
2023-06-04T03:50:23.457Z,102024.88
2023-06-04T03:52:29.122Z,102021.34
2023-06-04T03:54:35.159Z,102020.66
2023-06-04T03:56:39.363Z,102016.28
2023-06-04T03:58:45.962Z,102024.28
2023-06-04T04:00:49.683Z,102019.00
2023-06-04T04:02:53.706Z,102026.09
2023-06-04T04:05:02.502Z,102028.78
2023-06-04T04:07:06.122Z,102021.84
2023-06-04T04:09:10.046Z,102020.06
2023-06-04T04:11:14.813Z,102019.13
2023-06-04T04:13:18.220Z,102011.19
2023-06-04T04:15:21.686Z,102019.06
2023-06-04T04:17:26.421Z,102019.00
2023-06-04T04:19:31.165Z,102020.50
2023-06-04T04:21:38.996Z,102015.06
2023-06-04T04:23:43.316Z,102018.59
2023-06-04T04:25:49.302Z,102018.59
2023-06-04T04:27:53.698Z,102021.25
2023-06-04T04:30:01.833Z,102023.88
2023-06-04T04:32:12.475Z,102024.72
2023-06-04T04:34:22.939Z,102022.97
2023-06-04T04:36:27.430Z,102028.16
2023-06-04T04:38:34.989Z,102035.09
2023-06-04T04:40:41.855Z,102035.88
2023-06-04T04:42:48.310Z,102033.16
2023-06-04T04:44:54.583Z,102033.09
2023-06-04T04:47:01.759Z,102036.41
2023-06-04T04:49:06.786Z,102033.47
2023-06-04T04:51:10.669Z,102035.97
2023-06-04T04:53:16.082Z,102033.03
2023-06-04T04:55:21.584Z,102032.69
2023-06-04T04:57:28.313Z,102042.34
2023-06-04T04:59:34.755Z,102036.03
2023-06-04T05:01:38.780Z,102045.16
2023-06-04T05:03:43.179Z,102036.19
2023-06-04T05:05:49.314Z,102039.63
2023-06-04T05:07:52.901Z,102039.84
2023-06-04T05:10:00.375Z,102040.34
2023-06-04T05:12:06.974Z,102038.19
2023-06-04T05:14:12.187Z,102031.81
2023-06-04T05:16:16.875Z,102033.91
2023-06-04T05:18:21.843Z,102043.88
2023-06-04T05:20:28.196Z,102036.06
2023-06-04T05:22:33.888Z,102034.03
2023-06-04T05:24:38.476Z,102031.69
2023-06-04T05:26:44.716Z,102030.72
2023-06-04T05:28:58.146Z,102037.59
2023-06-04T05:31:11.541Z,102035.22
2023-06-04T05:33:20.799Z,102039.81
2023-06-04T05:35:34.563Z,102040.72
2023-06-04T05:37:41.941Z,102044.47
2023-06-04T05:39:47.081Z,102040.28
2023-06-04T05:41:53.099Z,102047.75
2023-06-04T05:43:59.046Z,102042.91
2023-06-04T05:46:04.341Z,102041.50
2023-06-04T05:48:08.912Z,102049.81
2023-06-04T05:50:12.982Z,102044.59
2023-06-04T05:52:17.248Z,102041.63
2023-06-04T05:54:23.659Z,102038.03
2023-06-04T05:56:28.454Z,102050.22
2023-06-04T05:58:35.743Z,102048.16
2023-06-04T06:00:42.357Z,102041.78
2023-06-04T06:02:50.636Z,102049.50
2023-06-04T06:05:09.457Z,102046.91
2023-06-04T06:07:13.215Z,102042.00
2023-06-04T06:09:18.556Z,102038.13
2023-06-04T06:11:23.932Z,102049.59
2023-06-04T06:13:28.903Z,102044.81
2023-06-04T06:15:34.355Z,102049.47
2023-06-04T06:17:40.516Z,102048.63
2023-06-04T06:19:45.428Z,102042.75
2023-06-04T06:21:50.142Z,102047.91
2023-06-04T06:23:54.513Z,102049.59
2023-06-04T06:25:58.856Z,102045.84
2023-06-04T06:28:06.444Z,102051.28
2023-06-04T06:30:12.232Z,102046.16
2023-06-04T06:32:17.389Z,102042.91
2023-06-04T06:34:23.179Z,102041.81
2023-06-04T06:36:27.611Z,102042.13
2023-06-04T06:38:33.059Z,102042.00
2023-06-04T06:40:38.469Z,102041.28
2023-06-04T06:42:41.976Z,102049.56
2023-06-04T06:44:48.122Z,102052.16
2023-06-04T06:46:52.071Z,102052.66
2023-06-04T06:48:56.441Z,102045.16
2023-06-04T06:51:03.075Z,102047.72
2023-06-04T06:53:06.741Z,102050.44
2023-06-04T06:55:11.243Z,102051.06
2023-06-04T06:57:15.213Z,102051.47
2023-06-04T06:59:19.432Z,102055.00
2023-06-04T07:01:23.545Z,102054.34
2023-06-04T07:03:27.683Z,102050.78
2023-06-04T07:05:31.454Z,102052.06
2023-06-04T07:07:36.949Z,102051.28
2023-06-04T07:09:40.584Z,102058.66
2023-06-04T07:11:44.169Z,102061.97
2023-06-04T07:13:48.121Z,102061.81
2023-06-04T07:15:53.137Z,102057.38
2023-06-04T07:17:57.984Z,102063.91
2023-06-04T07:20:03.592Z,102065.78
2023-06-04T07:22:07.773Z,102066.38
2023-06-04T07:24:13.143Z,102065.34
2023-06-04T07:26:18.899Z,102069.09
2023-06-04T07:28:23.617Z,102062.25
2023-06-04T07:30:28.021Z,102067.59
2023-06-04T07:32:32.116Z,102076.13
2023-06-04T07:34:38.157Z,102065.88
2023-06-04T07:36:42.792Z,102067.91
2023-06-04T07:38:47.053Z,102064.22
2023-06-04T07:40:53.662Z,102067.19
2023-06-04T07:42:57.904Z,102066.78
2023-06-04T07:45:04.480Z,102071.25
2023-06-04T07:47:09.317Z,102075.53
2023-06-04T07:49:14.109Z,102073.44
2023-06-04T07:51:20.647Z,102079.03
2023-06-04T07:53:24.743Z,102077.25
2023-06-04T07:55:29.436Z,102080.03
2023-06-04T07:57:34.775Z,102083.31
2023-06-04T07:59:38.829Z,102078.97
2023-06-04T08:01:42.493Z,102077.06
2023-06-04T08:03:46.252Z,102075.84
2023-06-04T08:05:49.905Z,102076.03
2023-06-04T08:07:54.772Z,102087.03
2023-06-04T08:09:58.880Z,102073.72
2023-06-04T08:12:02.557Z,102073.22
2023-06-04T08:14:07.878Z,102073.56
2023-06-04T08:16:12.183Z,102070.00
2023-06-04T08:18:15.981Z,102064.91
2023-06-04T08:20:20.480Z,102058.91
2023-06-04T08:22:24.812Z,102072.28
2023-06-04T08:24:28.451Z,102075.94
2023-06-04T08:26:32.238Z,102074.75
2023-06-04T08:28:35.965Z,102071.59
2023-06-04T08:30:41.331Z,102070.13
2023-06-04T08:32:45.282Z,102074.41
2023-06-04T08:34:48.949Z,102075.94
2023-06-04T08:36:53.081Z,102075.81
2023-06-04T08:38:56.770Z,102076.94
2023-06-04T08:41:09.758Z,102072.69
2023-06-04T08:43:14.473Z,102066.91
2023-06-04T08:45:19.437Z,102076.16
2023-06-04T08:47:28.225Z,102071.00
2023-06-04T08:49:36.400Z,102075.59
2023-06-04T08:51:40.552Z,102072.72
2023-06-04T08:53:48.939Z,102075.53
2023-06-04T08:55:55.119Z,102081.22
2023-06-04T08:57:59.219Z,102080.75
2023-06-04T09:00:04.867Z,102085.34
2023-06-04T09:02:09.445Z,102087.25
2023-06-04T09:04:14.856Z,102086.94
2023-06-04T09:06:18.755Z,102095.03
2023-06-04T09:08:24.298Z,102083.22
2023-06-04T09:10:29.184Z,102089.13
2023-06-04T09:12:34.853Z,102090.06
2023-06-04T09:14:38.919Z,102090.78
2023-06-04T09:16:47.962Z,102091.16
2023-06-04T09:18:52.784Z,102095.88
2023-06-04T09:21:05.543Z,102091.41
2023-06-04T09:23:17.001Z,102086.75
2023-06-04T09:25:26.659Z,102093.56
2023-06-04T09:27:42.570Z,102084.34
2023-06-04T09:29:54.209Z,102084.22
2023-06-04T09:32:01.777Z,102088.19
2023-06-04T09:34:07.124Z,102087.13
2023-06-04T09:36:12.665Z,102089.78
2023-06-04T09:38:16.443Z,102085.69
2023-06-04T09:40:22.374Z,102097.59
2023-06-04T09:42:27.608Z,102099.47
2023-06-04T09:44:32.485Z,102096.75
2023-06-04T09:46:36.818Z,102096.34
2023-06-04T09:48:41.346Z,102098.44
2023-06-04T09:50:46.491Z,102107.34
2023-06-04T09:52:52.661Z,102103.47
2023-06-04T09:54:56.799Z,102100.84
2023-06-04T09:57:02.395Z,102101.47
2023-06-04T09:59:15.284Z,102101.41
2023-06-04T10:01:20.325Z,102098.22
2023-06-04T10:03:28.459Z,102106.38
2023-06-04T10:05:35.355Z,102116.25
2023-06-04T10:07:42.040Z,102113.03
2023-06-04T10:09:52.968Z,102113.16
2023-06-04T10:12:00.355Z,102112.91
2023-06-04T10:14:10.470Z,102113.81
2023-06-04T10:16:25.052Z,102108.56
2023-06-04T10:18:37.574Z,102119.03
2023-06-04T10:20:43.833Z,102122.06
2023-06-04T10:22:52.950Z,102124.06
2023-06-04T10:25:00.714Z,102128.22
2023-06-04T10:27:11.861Z,102137.53
2023-06-04T10:29:18.115Z,102133.16
2023-06-04T10:31:22.709Z,102133.91
2023-06-04T10:33:28.204Z,102138.19
2023-06-04T10:35:33.548Z,102137.88
2023-06-04T10:37:39.228Z,102135.50
2023-06-04T10:39:54.200Z,102141.69
2023-06-04T10:42:03.959Z,102140.50
2023-06-04T10:44:10.854Z,102145.97
2023-06-04T10:46:16.516Z,102142.88
2023-06-04T10:48:21.818Z,102135.78
2023-06-04T10:50:25.848Z,102142.53
2023-06-04T10:52:29.971Z,102138.25
2023-06-04T10:54:34.114Z,102145.84
2023-06-04T10:56:39.243Z,102145.78
2023-06-04T10:58:44.659Z,102145.25
2023-06-04T11:00:51.127Z,102143.84
2023-06-04T11:02:56.769Z,102150.13
2023-06-04T11:05:07.402Z,102151.75
2023-06-04T11:07:11.349Z,102152.97
2023-06-04T11:09:18.156Z,102152.78
2023-06-04T11:11:22.726Z,102153.84
2023-06-04T11:13:27.238Z,102146.81
2023-06-04T11:15:42.294Z,102153.19
2023-06-04T11:17:54.737Z,102160.63
2023-06-04T11:19:58.912Z,102148.38
2023-06-04T11:22:03.229Z,102147.88
2023-06-04T11:24:09.806Z,102152.13
2023-06-04T11:26:13.322Z,102150.63
2023-06-04T11:28:18.459Z,102150.09
2023-06-04T11:30:22.932Z,102161.56
2023-06-04T11:32:28.294Z,102152.53
2023-06-04T11:34:33.280Z,102153.88
2023-06-04T11:36:37.706Z,102153.09
2023-06-04T11:38:42.531Z,102145.28
2023-06-04T11:40:46.738Z,102159.16
2023-06-04T11:42:51.286Z,102155.66
2023-06-04T11:44:59.616Z,102156.66
2023-06-04T11:47:03.581Z,102158.34
2023-06-04T11:49:08.695Z,102156.72
2023-06-04T11:51:13.071Z,102157.91
2023-06-04T11:53:17.374Z,102162.97
2023-06-04T11:55:22.021Z,102156.22
2023-06-04T11:57:26.426Z,102151.44
2023-06-04T11:59:34.620Z,102150.69
2023-06-04T12:01:43.112Z,102148.53
2023-06-04T12:03:48.146Z,102147.91
2023-06-04T12:05:53.594Z,102148.94
2023-06-04T12:08:07.833Z,102158.97
2023-06-04T12:10:13.167Z,102152.84
2023-06-04T12:12:17.137Z,102150.88
2023-06-04T12:14:23.196Z,102154.75
2023-06-04T12:16:27.600Z,102155.66
2023-06-04T12:18:32.215Z,102156.03
2023-06-04T12:20:40.648Z,102155.13
2023-06-04T12:22:49.429Z,102154.56
2023-06-04T12:24:55.764Z,102149.97
2023-06-04T12:27:10.596Z,102146.19
2023-06-04T12:29:16.828Z,102149.09
2023-06-04T12:31:20.399Z,102144.72
2023-06-04T12:33:24.105Z,102147.47
2023-06-04T12:35:29.284Z,102145.84
2023-06-04T12:37:32.933Z,102157.41
2023-06-04T12:39:40.607Z,102150.91
2023-06-04T12:41:48.376Z,102157.34
2023-06-04T12:43:52.152Z,102161.94
2023-06-04T12:45:56.214Z,102163.47
2023-06-04T12:48:00.370Z,102157.91
2023-06-04T12:50:04.437Z,102153.31
2023-06-04T12:52:09.681Z,102167.47
2023-06-04T12:54:13.762Z,102157.53
2023-06-04T12:56:19.252Z,102154.84
2023-06-04T12:58:23.029Z,102155.16
2023-06-04T13:00:27.491Z,102157.31
2023-06-04T13:02:32.252Z,102162.34
2023-06-04T13:04:35.889Z,102165.56
2023-06-04T13:06:40.469Z,102152.41
2023-06-04T13:08:46.072Z,102153.34
2023-06-04T13:10:52.326Z,102160.44
2023-06-04T13:13:02.922Z,102150.69
2023-06-04T13:15:08.871Z,102155.31
2023-06-04T13:17:22.067Z,102164.41
2023-06-04T13:19:27.966Z,102157.34
2023-06-04T13:21:32.328Z,102156.03
2023-06-04T13:23:49.805Z,102157.22
2023-06-04T13:25:55.791Z,102153.34
2023-06-04T13:28:01.848Z,102140.41
2023-06-04T13:30:07.797Z,102147.69
2023-06-04T13:32:13.183Z,102158.41
2023-06-04T13:34:26.971Z,102142.94
2023-06-04T13:36:33.176Z,102152.31
2023-06-04T13:38:37.123Z,102143.50
2023-06-04T13:40:41.490Z,102153.59
2023-06-04T13:42:46.344Z,102146.63
2023-06-04T13:44:51.297Z,102143.28
2023-06-04T13:46:57.185Z,102142.75
2023-06-04T13:49:01.335Z,102142.22
2023-06-04T13:51:06.282Z,102140.19
2023-06-04T13:53:11.505Z,102142.97
2023-06-04T13:55:15.784Z,102138.16
2023-06-04T13:57:19.886Z,102138.16
2023-06-04T13:59:23.624Z,102147.03
2023-06-04T14:01:29.721Z,102141.59
2023-06-04T14:03:34.049Z,102134.84
2023-06-04T14:05:38.101Z,102141.28
2023-06-04T14:07:41.589Z,102137.19
2023-06-04T14:09:45.790Z,102132.06
2023-06-04T14:11:51.958Z,102139.78
2023-06-04T14:13:56.113Z,102123.72
2023-06-04T14:15:59.722Z,102134.63
2023-06-04T14:18:06.637Z,102134.44
2023-06-04T14:20:11.947Z,102138.06
2023-06-04T14:22:16.545Z,102135.69
2023-06-04T14:24:20.478Z,102133.78
2023-06-04T14:26:26.546Z,102134.00
2023-06-04T14:28:30.686Z,102134.84
2023-06-04T14:30:34.855Z,102135.78
2023-06-04T14:32:41.707Z,102137.22
2023-06-04T14:34:46.829Z,102133.78
2023-06-04T14:36:50.725Z,102121.03
2023-06-04T14:38:54.426Z,102118.69
2023-06-04T14:40:59.109Z,102125.19
2023-06-04T14:43:04.441Z,102123.47
2023-06-04T14:45:11.281Z,102131.63
2023-06-04T14:47:15.473Z,102131.41
2023-06-04T14:49:19.225Z,102127.75
2023-06-04T14:51:24.849Z,102125.94
2023-06-04T14:53:28.544Z,102130.13
2023-06-04T14:55:32.028Z,102120.28
2023-06-04T14:57:35.979Z,102123.81
2023-06-04T14:59:42.680Z,102130.66
2023-06-04T15:01:47.768Z,102124.34
2023-06-04T15:03:52.342Z,102128.28
2023-06-04T15:06:10.678Z,102120.50
2023-06-04T15:08:25.631Z,102116.09
2023-06-04T15:10:30.005Z,102120.16
2023-06-04T15:12:37.867Z,102126.69
2023-06-04T15:14:41.681Z,102119.41
2023-06-04T15:16:45.936Z,102124.97
2023-06-04T15:18:51.381Z,102121.22
2023-06-04T15:20:56.749Z,102126.34
2023-06-04T15:23:01.395Z,102122.09
2023-06-04T15:25:08.117Z,102128.06
2023-06-04T15:27:12.533Z,102118.22
2023-06-04T15:29:16.768Z,102115.56
2023-06-04T15:31:21.571Z,102114.28
2023-06-04T15:33:26.293Z,102111.84
2023-06-04T15:35:30.170Z,102110.66
2023-06-04T15:37:33.913Z,102122.63
2023-06-04T15:39:38.418Z,102110.19
2023-06-04T15:41:43.919Z,102110.63
2023-06-04T15:43:47.637Z,102106.44
2023-06-04T15:45:51.595Z,102110.75
2023-06-04T15:47:55.330Z,102111.38
2023-06-04T15:49:59.478Z,102110.66
2023-06-04T15:52:05.158Z,102101.66
2023-06-04T15:54:10.335Z,102105.28
2023-06-04T15:56:14.871Z,102105.09
2023-06-04T15:58:20.619Z,102111.28
2023-06-04T16:00:25.679Z,102104.97
2023-06-04T16:02:32.054Z,102096.94
2023-06-04T16:04:37.107Z,102100.91
2023-06-04T16:06:42.219Z,102106.34
2023-06-04T16:08:45.938Z,102104.84
2023-06-04T16:10:52.466Z,102107.63
2023-06-04T16:12:56.136Z,102103.56
2023-06-04T16:15:01.502Z,102110.41
2023-06-04T16:17:05.409Z,102101.97
2023-06-04T16:19:09.016Z,102097.38
2023-06-04T16:21:14.790Z,102101.63
2023-06-04T16:23:20.179Z,102102.63
2023-06-04T16:25:25.564Z,102105.94
2023-06-04T16:27:29.883Z,102095.22
2023-06-04T16:29:35.406Z,102095.22
2023-06-04T16:31:41.141Z,102100.81
2023-06-04T16:33:47.317Z,102097.47
2023-06-04T16:35:54.851Z,102103.06
2023-06-04T16:37:58.643Z,102098.88
2023-06-04T16:40:03.300Z,102098.78
2023-06-04T16:42:09.096Z,102099.31
2023-06-04T16:44:13.009Z,102102.50
2023-06-04T16:46:17.470Z,102100.59
2023-06-04T16:48:23.523Z,102094.81
2023-06-04T16:50:32.768Z,102092.97
2023-06-04T16:52:37.461Z,102100.16
2023-06-04T16:54:43.764Z,102092.00
2023-06-04T16:56:48.512Z,102088.38
2023-06-04T16:58:52.630Z,102091.78
2023-06-04T17:00:57.582Z,102089.03
2023-06-04T17:03:01.466Z,102087.50
2023-06-04T17:05:20.464Z,102089.03
2023-06-04T17:07:30.250Z,102091.38
2023-06-04T17:09:35.187Z,102088.91
2023-06-04T17:11:40.349Z,102088.38
2023-06-04T17:13:44.432Z,102083.13
2023-06-04T17:15:48.971Z,102082.59
2023-06-04T17:17:53.584Z,102085.28
2023-06-04T17:19:58.695Z,102082.25
2023-06-04T17:22:06.819Z,102084.22
2023-06-04T17:24:11.446Z,102082.38
2023-06-04T17:26:16.697Z,102081.31
2023-06-04T17:28:21.797Z,102087.41
2023-06-04T17:30:25.815Z,102083.44
2023-06-04T17:32:32.260Z,102074.78
2023-06-04T17:34:37.062Z,102075.41
2023-06-04T17:36:42.301Z,102077.47
2023-06-04T17:38:47.710Z,102069.84
2023-06-04T17:40:53.956Z,102063.13
2023-06-04T17:42:57.838Z,102066.56
2023-06-04T17:45:05.433Z,102071.91
2023-06-04T17:47:09.147Z,102062.72
2023-06-04T17:49:14.446Z,102065.38
2023-06-04T17:51:18.358Z,102055.84
2023-06-04T17:53:22.188Z,102059.72
2023-06-04T17:55:27.359Z,102059.72
2023-06-04T17:57:31.833Z,102056.50
2023-06-04T17:59:36.954Z,102056.50
2023-06-04T18:01:44.280Z,102060.13
2023-06-04T18:03:51.732Z,102061.97
2023-06-04T18:05:56.005Z,102062.56
2023-06-04T18:07:59.741Z,102061.84
2023-06-04T18:10:03.526Z,102059.06
2023-06-04T18:12:12.219Z,102063.13
2023-06-04T18:14:16.070Z,102054.97
2023-06-04T18:16:20.011Z,102058.63
2023-06-04T18:18:25.198Z,102055.84
2023-06-04T18:20:29.155Z,102053.91
2023-06-04T18:22:32.861Z,102058.19
2023-06-04T18:24:38.351Z,102057.66
2023-06-04T18:26:42.175Z,102055.09
2023-06-04T18:28:47.935Z,102057.13
2023-06-04T18:30:51.517Z,102055.44
2023-06-04T18:32:55.838Z,102054.13
2023-06-04T18:34:59.937Z,102058.41
2023-06-04T18:37:03.975Z,102054.69
2023-06-04T18:39:07.480Z,102056.19
2023-06-04T18:41:11.218Z,102056.25
2023-06-04T18:43:14.765Z,102050.72
2023-06-04T18:45:20.093Z,102052.41
2023-06-04T18:47:23.931Z,102051.56
2023-06-04T18:49:27.732Z,102058.41
2023-06-04T18:51:32.154Z,102053.69
2023-06-04T18:53:35.929Z,102049.41
2023-06-04T18:55:39.898Z,102056.69
2023-06-04T18:57:44.002Z,102050.72
2023-06-04T18:59:47.753Z,102051.66
2023-06-04T19:01:52.844Z,102058.63
2023-06-04T19:03:56.564Z,102050.81
2023-06-04T19:06:00.470Z,102053.28
2023-06-04T19:08:04.263Z,102047.47
2023-06-04T19:10:09.582Z,102045.75
2023-06-04T19:12:13.202Z,102044.88
2023-06-04T19:14:16.838Z,102041.00
2023-06-04T19:16:20.789Z,102043.97
2023-06-04T19:18:26.460Z,102038.63
2023-06-04T19:20:30.664Z,102043.34
2023-06-04T19:22:34.670Z,102046.16
2023-06-04T19:24:38.527Z,102041.69
2023-06-04T19:26:43.969Z,102041.69
2023-06-04T19:28:48.999Z,102041.69
2023-06-04T19:30:53.723Z,102043.41
2023-06-04T19:32:57.565Z,102042.25
2023-06-04T19:35:03.696Z,102038.31
2023-06-04T19:37:08.889Z,102034.56
2023-06-04T19:39:13.005Z,102030.78
2023-06-04T19:41:16.935Z,102035.72
2023-06-04T19:43:21.676Z,102030.06
2023-06-04T19:45:25.664Z,102032.28
2023-06-04T19:47:29.554Z,102033.72
2023-06-04T19:49:33.133Z,102031.50
2023-06-04T19:51:38.621Z,102034.16
2023-06-04T19:53:42.199Z,102037.13
2023-06-04T19:55:46.443Z,102033.16
2023-06-04T19:57:50.432Z,102036.22
2023-06-04T19:59:55.065Z,102038.47
2023-06-04T20:01:58.798Z,102037.81
2023-06-04T20:04:02.847Z,102040.72
2023-06-04T20:06:08.042Z,102047.75
2023-06-04T20:08:14.639Z,102048.91
2023-06-04T20:10:19.361Z,102056.50
2023-06-04T20:12:23.441Z,102053.91
2023-06-04T20:14:27.207Z,102052.38
2023-06-04T20:16:31.571Z,102058.78
2023-06-04T20:18:35.736Z,102059.09
2023-06-04T20:20:40.867Z,102067.09
2023-06-04T20:22:44.666Z,102067.22
2023-06-04T20:24:49.979Z,102063.88
2023-06-04T20:26:54.079Z,102062.19
2023-06-04T20:28:58.625Z,102063.31
2023-06-04T20:31:02.366Z,102060.66
2023-06-04T20:33:06.280Z,102066.75
2023-06-04T20:35:11.188Z,102069.22
2023-06-04T20:37:15.054Z,102069.41
2023-06-04T20:39:18.604Z,102071.41
2023-06-04T20:41:25.160Z,102074.59
2023-06-04T20:43:28.773Z,102069.72
2023-06-04T20:45:32.388Z,102074.41
2023-06-04T20:47:36.092Z,102084.44
2023-06-04T20:49:39.869Z,102097.97
2023-06-04T20:51:43.499Z,102095.38
2023-06-04T20:53:49.214Z,102096.16
2023-06-04T20:55:53.410Z,102103.22
2023-06-04T20:58:00.406Z,102106.06
2023-06-04T21:00:04.768Z,102108.81
2023-06-04T21:02:11.973Z,102107.03
2023-06-04T21:04:16.822Z,102108.09
2023-06-04T21:06:21.366Z,102105.63
2023-06-04T21:08:27.230Z,102105.69
2023-06-04T21:10:32.594Z,102104.84
2023-06-04T21:12:37.594Z,102101.22
2023-06-04T21:14:44.373Z,102101.97
2023-06-04T21:16:49.947Z,102109.03
2023-06-04T21:18:54.370Z,102103.59
2023-06-04T21:20:59.271Z,102104.38
2023-06-04T21:23:02.364Z,102107.19
2023-06-04T21:25:06.376Z,102103.69
2023-06-04T21:27:10.041Z,102103.78
2023-06-04T21:29:14.685Z,102115.50
2023-06-04T21:31:20.537Z,102110.25
2023-06-04T21:33:25.406Z,102112.91
2023-06-04T21:35:29.895Z,102107.78
2023-06-04T21:37:34.340Z,102111.38
2023-06-04T21:39:38.473Z,102111.38
2023-06-04T21:41:43.155Z,102107.00
2023-06-04T21:43:47.286Z,102111.59
2023-06-04T21:45:52.349Z,102112.53
2023-06-04T21:47:58.769Z,102111.69
2023-06-04T21:50:03.466Z,102116.13
2023-06-04T21:52:17.743Z,102117.97
2023-06-04T21:54:30.739Z,102113.66
2023-06-04T21:56:34.662Z,102116.34
2023-06-04T21:58:40.572Z,102122.63
2023-06-04T22:00:46.187Z,102121.78
2023-06-04T22:02:50.638Z,102120.91
2023-06-04T22:04:56.145Z,102121.78
2023-06-04T22:07:02.081Z,102119.94
2023-06-04T22:09:07.448Z,102119.09
2023-06-04T22:11:11.888Z,102118.22
2023-06-04T22:13:19.047Z,102118.41
2023-06-04T22:15:24.268Z,102125.75
2023-06-04T22:17:28.200Z,102120.69
2023-06-04T22:19:32.333Z,102121.84
2023-06-04T22:21:38.881Z,102124.78
2023-06-04T22:23:42.860Z,102117.06
2023-06-04T22:25:48.844Z,102119.13
2023-06-04T22:27:53.939Z,102117.59
2023-06-04T22:29:58.388Z,102117.03
2023-06-04T22:32:03.454Z,102123.50
2023-06-04T22:34:07.444Z,102124.63
2023-06-04T22:36:13.233Z,102125.78
2023-06-04T22:38:19.823Z,102124.22
2023-06-04T22:40:26.072Z,102127.94
2023-06-04T22:42:30.306Z,102136.97
2023-06-04T22:44:34.174Z,102137.16
2023-06-04T22:46:38.536Z,102137.31
2023-06-04T22:48:42.997Z,102133.00
2023-06-04T22:50:50.222Z,102131.41
2023-06-04T22:52:54.031Z,102134.22
2023-06-04T22:54:59.337Z,102138.91
2023-06-04T22:57:03.052Z,102132.78
2023-06-04T22:59:07.377Z,102140.88
2023-06-04T23:01:12.349Z,102138.38
2023-06-04T23:03:17.972Z,102142.84
2023-06-04T23:05:23.754Z,102135.13
2023-06-04T23:07:27.814Z,102137.88
2023-06-04T23:09:32.763Z,102142.50
2023-06-04T23:11:39.045Z,102146.22
2023-06-04T23:13:42.704Z,102131.34
2023-06-04T23:15:46.372Z,102141.25
2023-06-04T23:17:51.736Z,102144.09
2023-06-04T23:19:56.889Z,102142.28
2023-06-04T23:22:00.987Z,102140.63
2023-06-04T23:24:05.574Z,102139.88
2023-06-04T23:26:10.057Z,102146.97
2023-06-04T23:28:16.085Z,102143.63
2023-06-04T23:30:20.731Z,102147.13
2023-06-04T23:32:24.960Z,102140.19
2023-06-04T23:34:29.673Z,102143.88
2023-06-04T23:36:33.201Z,102135.13
2023-06-04T23:38:38.288Z,102136.16
2023-06-04T23:40:42.749Z,102145.06
2023-06-04T23:42:47.493Z,102143.53
2023-06-04T23:44:52.745Z,102145.41
2023-06-04T23:46:56.718Z,102146.44
2023-06-04T23:49:01.418Z,102145.75
2023-06-04T23:51:05.104Z,102151.25
2023-06-04T23:53:08.886Z,102150.38
2023-06-04T23:55:13.219Z,102146.06